東京国際空港の過去48時間の天気

東京国際空港 (Tokyo/Intl)

現在時刻: 12/11 16:59 JST (12/11 07:59 UTC) 以下の時間は現地時間です。

過去48時間のMETAR気象情報
時間 風向 風速(m/s) 視程 気温(℃) 湿度(%) 気圧(hPa) 天気現象
11 16:30 6 10km以上 8 71 1027 弱い雨
11 16:00 5 10km以上 8 66 1027 弱い雨
11 15:30 北北東 4 10km以上 8 66 1027 弱い雨
11 15:00 4 10km以上 8 61 1027 弱い雨
11 14:30 北北東 5 10km以上 8 57 1027
11 14:00 北北東 5 10km以上 8 53 1027
11 13:30 北北東 5 10km以上 8 53 1027
11 13:00 5 10km以上 8 57 1028
11 12:30 北北西 4 10km以上 8 53 1029
11 12:00 4 10km以上 7 53 1029
11 11:30 6 10km以上 7 57 1030
11 11:00 5 10km以上 7 53 1030
11 10:30 6 10km以上 7 53 1031
11 10:00 北北西 5 10km以上 7 49 1032
11 09:30 北北西 5 10km以上 7 53 1032
11 09:00 北北西 6 10km以上 7 53 1031
11 08:30 5 10km以上 7 57 1031
11 08:00 北北西 5 10km以上 6 61 1031
11 07:30 6 10km以上 6 52 1031
11 07:00 6 10km以上 5 65 1031
11 06:30 5 10km以上 5 65 1030
11 06:00 北北東 5 10km以上 5 65 1030
11 05:30 北北東 5 10km以上 5 65 1030
11 05:00 北北東 6 10km以上 6 61 1030
11 04:30 北北東 6 10km以上 6 61 1029
11 04:00 北北東 6 10km以上 6 61 1029
11 03:30 北北東 6 10km以上 6 61 1030
11 03:00 北北東 5 10km以上 6 57 1030
11 02:30 北北東 5 10km以上 6 52 1030
11 02:00 北北東 5 10km以上 6 57 1030
11 01:30 北北東 5 10km以上 6 61 1030
11 01:00 北北東 5 10km以上 7 53 1030
11 00:30 5 10km以上 7 53 1029
11 00:00 5 10km以上 7 53 1029
10 23:30 5 10km以上 7 49 1029
10 23:00 6 10km以上 7 53 1029
10 22:30 6 10km以上 8 49 1029
10 22:00 6 10km以上 8 49 1029
10 21:30 6 10km以上 8 53 1029
10 21:00 北北東 4 10km以上 8 46 1028
10 20:30 北北東 4 10km以上 8 49 1029
10 20:00 北北東 4 10km以上 8 46 1029
10 19:30 北北東 4 10km以上 8 49 1029
10 19:00 北北東 5 10km以上 8 46 1028
10 18:30 北北東 5 10km以上 8 49 1028
10 18:00 北北東 5 10km以上 8 49 1028
10 17:30 北北東 5 10km以上 8 46 1028
10 17:00 北北東 5 10km以上 8 49 1028
10 16:30 北東 5 10km以上 8 42 1027
10 16:00 北東 4 10km以上 8 49 1027
10 15:30 北東 3 10km以上 8 49 1027
10 15:00 北東 4 10km以上 8 49 1027
10 14:30 北東 5 10km以上 8 49 1027
10 14:00 北東 5 10km以上 9 50 1026
10 13:30 北北東 6 10km以上 8 49 1027
10 13:00 北北東 5 10km以上 8 49 1027
10 12:30 北北東 6 10km以上 7 53 1027
10 12:00 北東 6 10km以上 8 53 1027
10 11:30 北北東 6 10km以上 7 53 1028
10 11:00 北東 5 10km以上 7 53 1028
10 10:30 北東 6 10km以上 7 57 1028
10 10:00 北北東 6 10km以上 7 53 1029
10 09:30 北北東 6 10km以上 7 53 1029
10 09:00 北北東 6 10km以上 7 57 1029
10 08:30 6 10km以上 7 53 1028
10 08:00 北北東 5 10km以上 6 57 1028
10 07:30 北北東 5 10km以上 6 57 1028
10 07:00 北東 5 10km以上 6 57 1028
10 06:30 北北東 6 10km以上 6 57 1027
10 06:00 6 10km以上 6 57 1027
10 05:30 7 10km以上 6 52 1027
10 05:00 北北東 6 10km以上 6 57 1026
10 04:30 8 10km以上 7 53 1026
10 04:00 8 10km以上 7 49 1026
10 03:30 北北西 7 10km以上 7 49 1026
10 03:00 8 10km以上 7 49 1026
10 02:30 8 10km以上 7 49 1026
10 02:00 北北西 8 10km以上 7 49 1026
10 01:30 8 10km以上 7 53 1025
10 01:00 北北西 9 10km以上 7 45 1026
10 00:30 8 10km以上 7 49 1026
10 00:18 8 10km以上 7 53 1026
10 00:00 7 10km以上 7 49 1026
9 23:30 8 10km以上 8 49 1026
9 23:00 7 10km以上 7 49 1026
9 22:30 8 10km以上 8 46 1026
9 22:00 8 10km以上 7 49 1025
9 21:30 8 10km以上 8 46 1025
9 21:00 8 10km以上 8 46 1025
9 20:30 8 10km以上 8 49 1024
9 20:00 7 10km以上 8 46 1025
9 19:30 9 10km以上 9 43 1025
9 19:00 7 10km以上 9 43 1025
9 18:30 7 10km以上 9 43 1025
9 18:00 7 10km以上 9 43 1024
9 17:30 7 10km以上 9 43 1024
9 17:00 6 10km以上 10 43 1023
RJTT 110730Z 35011KT 9999 -RA FEW020 BKN035 08/03 Q1027 NOSIG RMK 1CU020 7SC035 A3035
RJTT 110700Z 36010KT 9999 -RA FEW030 BKN040 08/02 Q1027 NOSIG RMK 1CU030 7SC040 A3034
RJTT 110630Z 02007KT 9999 -RA FEW030 BKN040 08/02 Q1027 NOSIG RMK 1CU030 7SC040 A3034
RJTT 110600Z 36008KT 330V030 9999 -RA FEW030 BKN040 08/01 Q1027 NOSIG RMK 1CU030 7SC040 A3034
RJTT 110530Z 02010KT 9999 FEW030 BKN040 08/00 Q1027 NOSIG RMK 1CU030 7SC040 A3034
RJTT 110500Z 02010KT 9999 FEW030 BKN045 08/M01 Q1027 NOSIG RMK 1CU030 7SC045 A3034
RJTT 110430Z 02010KT 9999 FEW030 BKN045 08/M01 Q1027 NOSIG RMK 1CU030 7SC045 A3035
RJTT 110400Z 36010KT 9999 FEW030 BKN050 08/M00 Q1028 NOSIG RMK 1CU030 7SC050 A3036
RJTT 110330Z 34007KT 9999 FEW030 BKN050 08/M01 Q1029 NOSIG RMK 1CU030 7SC050 A3039
RJTT 110300Z 36008KT 9999 FEW030 BKN050 07/M02 Q1029 NOSIG RMK 1CU030 7SC050 A3039
RJTT 110230Z 01011KT 9999 FEW030 BKN060 07/M01 Q1030 NOSIG RMK 1CU030 7SC060 A3042
RJTT 110200Z 35010KT 9999 FEW030 BKN060 07/M02 Q1030 NOSIG RMK 1CU030 7SC060 A3043
RJTT 110130Z 35011KT 9999 FEW030 BKN060 BKN/// 07/M02 Q1031 NOSIG
RJTT 110100Z 33010KT 9999 FEW030 BKN060 BKN070 07/M03 Q1032 NOSIG RMK 1CU030 5SC060 7AC070 A3047
RJTT 110030Z 33010KT 300V010 9999 FEW030 BKN060 BKN/// 07/M02 Q1032 NOSIG
RJTT 110000Z 34012KT 9999 FEW030 BKN060 BKN/// 07/M02 Q1031 NOSIG RMK 1CU030 6AC060 A3047
RJTT 102330Z 35010KT 9999 FEW030 SCT060 BKN/// 07/M01 Q1031 NOSIG RMK 1CU030 4SC060 A3046
RJTT 102300Z 34009KT 9999 FEW030 SCT060 BKN/// 06/M01 Q1031 NOSIG
RJTT 102230Z 35011KT 9999 SCT060 BKN/// 06/M03 Q1031 NOSIG
RJTT 102200Z 35011KT CAVOK 05/M01 Q1031 NOSIG RMK A3044
RJTT 102130Z 36010KT CAVOK 05/M01 Q1030 NOSIG RMK A3044
RJTT 102100Z 02009KT CAVOK 05/M01 Q1030 NOSIG RMK A3042
RJTT 102030Z 02009KT CAVOK 05/M01 Q1030 NOSIG RMK A3042
RJTT 102000Z 02012KT 9999 FEW060 06/M01 Q1030 NOSIG RMK 1SC060 A3041
RJTT 101930Z 02012KT 9999 FEW060 06/M01 Q1029 NOSIG RMK 1SC060 A3041
RJTT 101900Z 02011KT 9999 FEW060 06/M01 Q1029 NOSIG RMK 1SC060 A3041
RJTT 101830Z 02011KT 9999 FEW060 06/M01 Q1030 NOSIG RMK 1SC060 A3042
RJTT 101800Z 02009KT 9999 FEW060 06/M02 Q1030 NOSIG RMK 1SC060 A3043
RJTT 101730Z 02010KT 9999 SCT060 06/M03 Q1030 NOSIG RMK 3SC060 A3043
RJTT 101700Z 03009KT 360V060 9999 SCT060 06/M02 Q1030 NOSIG RMK 4SC060 A3043
RJTT 101630Z 02010KT 9999 BKN060 06/M01 Q1030 NOSIG RMK 6SC060 A3043
RJTT 101600Z 02009KT 9999 BKN060 07/M02 Q1030 NOSIG RMK 5SC060 A3042
RJTT 101530Z 36010KT 9999 BKN060 07/M02 Q1029 NOSIG RMK 5SC060 A3041
RJTT 101500Z 35009KT 9999 SCT060 07/M02 Q1029 NOSIG RMK 4SC060 A3040
RJTT 101430Z 35009KT 9999 FEW060 07/M03 Q1029 NOSIG RMK 2SC060 A3040
RJTT 101400Z 36011KT 9999 FEW060 07/M02 Q1029 NOSIG RMK 2AC060 A3040
RJTT 101330Z 36012KT 9999 FEW060 08/M02 Q1029 NOSIG RMK 2AC060 A3039
RJTT 101300Z 01011KT CAVOK 08/M02 Q1029 NOSIG RMK A3039
RJTT 101230Z 01011KT CAVOK 08/M01 Q1029 NOSIG RMK A3039
RJTT 101200Z 03008KT 9999 FEW050 08/M03 Q1028 NOSIG RMK 2SC050 A3038
RJTT 101130Z 02008KT 9999 FEW060 08/M02 Q1029 NOSIG RMK 2SC060 A3039
RJTT 101100Z 02008KT 9999 FEW060 08/M03 Q1029 NOSIG RMK 2SC060 A3039
RJTT 101030Z 02008KT CAVOK 08/M02 Q1029 NOSIG RMK A3039
RJTT 101000Z 03009KT 9999 FEW050 BKN/// 08/M03 Q1028 NOSIG RMK 1SC050 A3038
RJTT 100930Z 03009KT 9999 FEW060 BKN/// 08/M02 Q1028 NOSIG
RJTT 100900Z 03009KT 9999 FEW060 BKN/// 08/M02 Q1028 NOSIG RMK 1SC060 A3037
RJTT 100830Z 03010KT 9999 SCT060 BKN/// 08/M03 Q1028 NOSIG RMK 3SC060 A3036
RJTT 100800Z 03010KT 9999 SCT060 BKN/// 08/M02 Q1028 NOSIG RMK 4SC060 A3036
RJTT 100730Z 04010KT 9999 SCT060 BKN/// 08/M04 Q1027 NOSIG RMK 3SC060 A3035
RJTT 100700Z 04008KT 360V070 9999 FEW050 BKN/// 08/M02 Q1027 NOSIG
RJTT 100630Z 05006KT 020V080 9999 FEW050 BKN/// 08/M02 Q1027 NOSIG
RJTT 100600Z 04008KT 360V060 9999 FEW050 BKN/// 08/M02 Q1027 NOSIG RMK 2SC050 A3034
RJTT 100530Z 04009KT 360V060 9999 FEW050 BKN/// 08/M02 Q1027 NOSIG
RJTT 100500Z 04010KT 9999 FEW050 BKN/// 09/M01 Q1026 NOSIG RMK 1SC050 A3032
RJTT 100430Z 03012KT 9999 FEW050 BKN/// 08/M02 Q1027 NOSIG RMK 1SC050 A3033
RJTT 100400Z 03010KT 350V060 9999 FEW030 BKN/// 08/M02 Q1027 NOSIG RMK 1CU030 A3033
RJTT 100330Z 03011KT 9999 FEW030 SCT060 BKN/// 07/M02 Q1027 NOSIG
RJTT 100300Z 05011KT 9999 FEW030 BKN/// 08/M01 Q1027 NOSIG RMK 1CU030 A3035
RJTT 100230Z 03011KT 9999 FEW030 BKN/// 07/M02 Q1028 NOSIG
RJTT 100200Z 04009KT 9999 FEW030 BKN060 BKN/// 07/M02 Q1028 NOSIG RMK 1CU030 5SC060 A3038
RJTT 100130Z 04011KT 9999 FEW030 SCT060 BKN/// 07/M01 Q1028 NOSIG
RJTT 100100Z 03011KT 9999 FEW030 BKN050 BKN060 07/M02 Q1029 NOSIG RMK 1CU030 5SC050 6SC060 A3039
RJTT 100030Z 02012KT 9999 FEW030 BKN050 07/M02 Q1029 NOSIG RMK 1CU030 7SC050 A3040
RJTT 100000Z 02012KT 9999 FEW030 SCT050 BKN060 07/M01 Q1029 NOSIG RMK 1CU030 4SC050 7SC060 A3039
RJTT 092330Z 36012KT 9999 FEW030 BKN050 BKN060 07/M02 Q1028 NOSIG RMK 1CU030 5SC050 6SC060 A3038
RJTT 092300Z 02010KT 9999 FEW030 BKN050 06/M02 Q1028 NOSIG RMK 1CU030 7SC050 A3037
RJTT 092230Z 02009KT 340V050 9999 FEW030 BKN060 06/M02 Q1028 NOSIG RMK 1CU030 7SC060 A3036
RJTT 092200Z 04010KT 9999 FEW030 BKN050 06/M02 Q1028 NOSIG RMK 1CU030 7SC050 A3036
RJTT 092130Z 03012KT 9999 BKN050 06/M02 Q1027 NOSIG RMK 7SC050 A3034
RJTT 092100Z 01012KT 9999 FEW040 BKN050 BKN070 06/M02 Q1027 NOSIG RMK 1SC040 6SC050 7AC070 A3034
RJTT 092030Z 01013KT 9999 FEW040 BKN050 BKN070 06/M03 Q1027 NOSIG RMK 1SC040 5SC050 6AC070 A3033
RJTT 092000Z 02012KT 330V050 9999 FEW040 SCT050 BKN070 06/M02 Q1026 NOSIG RMK 1SC040 4SC050 6AC070 A3032
RJTT 091930Z 36016KT 9999 FEW040 BKN050 07/M02 Q1026 NOSIG RMK 1SC040 7SC050 A3032
RJTT 091900Z 36015KT 9999 FEW040 BKN050 07/M03 Q1026 NOSIG RMK 1SC040 7SC050 A3031
RJTT 091830Z 34013KT 9999 FEW040 BKN050 07/M03 Q1026 NOSIG RMK 1SC040 7SC050 A3030
RJTT 091800Z 35015KT 9999 FEW040 BKN050 07/M03 Q1026 NOSIG RMK 1SC040 7SC050 A3031
RJTT 091730Z 35016KT 9999 BKN050 07/M03 Q1026 NOSIG RMK 7SC050 A3030
RJTT 091700Z 34015KT 9999 BKN050 07/M03 Q1026 NOSIG RMK 7SC050 A3030
RJTT 091630Z 35015KT 9999 BKN050 07/M02 Q1025 NOSIG RMK 7SC050 A3029
RJTT 091600Z 34017KT 9999 BKN050 07/M04 Q1026 NOSIG RMK 7SC050 A3030
RJTT 091530Z 35016KT 9999 BKN050 07/M03 Q1026 NOSIG RMK 7SC050 A3031
RJTT 091518Z 35015G25KT 9999 BKN050 07/M02 Q1026 RMK 7SC050 A3031
RJTT 091500Z 35014KT 9999 BKN050 07/M03 Q1026 NOSIG RMK 7SC050 A3031
RJTT 091430Z 35015KT 9999 SCT050 BKN/// 08/M02 Q1026 NOSIG
RJTT 091400Z 35014KT 9999 FEW040 BKN050 07/M03 Q1026 NOSIG RMK 1CU040 6SC050 A3031
RJTT 091330Z 35015KT 9999 FEW050 SCT070 08/M03 Q1026 NOSIG RMK 1SC050 3AC070 A3031
RJTT 091300Z 35016KT 9999 FEW050 SCT070 07/M03 Q1025 NOSIG RMK 1CU050 4AC070 A3029
RJTT 091230Z 35015KT 9999 FEW050 SCT070 08/M03 Q1025 NOSIG RMK 1CU050 3AC070 A3029
RJTT 091200Z 36015KT CAVOK 08/M03 Q1025 NOSIG RMK A3028
RJTT 091130Z 36016KT 9999 FEW060 08/M02 Q1024 NOSIG RMK 2SC060 A3026
RJTT 091100Z 35014KT 9999 FEW060 SCT070 08/M03 Q1025 NOSIG RMK 1SC060 3AC070 A3028
RJTT 091030Z 35017KT 9999 BKN060 09/M03 Q1025 NOSIG RMK 7SC060 A3028
RJTT 091000Z 35013KT 9999 BKN060 09/M03 Q1025 NOSIG RMK 7SC060 A3028
RJTT 090930Z 35013KT 9999 FEW030 BKN060 09/M03 Q1025 NOSIG RMK 1CU030 7SC060 A3027
RJTT 090900Z 35013KT 9999 FEW030 BKN060 09/M03 Q1024 NOSIG RMK 1CU030 7SC060 A3025
RJTT 090830Z 35013KT 9999 FEW030 BKN060 09/M03 Q1024 NOSIG RMK 1CU030 7SC060 A3025
RJTT 090800Z 36011KT 9999 FEW030 BKN060 BKN/// 10/M02 Q1023 NOSIG RMK 1CU030 6SC060 A3023